createdAt,value
2022-12-31T00:01:35.684Z,99630.84
2022-12-31T00:04:03.883Z,99622.09
2022-12-31T00:06:35.633Z,99621.94
2022-12-31T00:09:06.481Z,99587.34
2022-12-31T00:11:37.685Z,99601.31
2022-12-31T00:14:06.662Z,99642.59
2022-12-31T00:16:40.474Z,99599.28
2022-12-31T00:19:12.178Z,99641.59
2022-12-31T00:21:40.567Z,99613.19
2022-12-31T00:24:11.101Z,99632.31
2022-12-31T00:26:39.913Z,99648.34
2022-12-31T00:29:08.036Z,99643.94
2022-12-31T00:31:39.367Z,99634.69
2022-12-31T00:34:08.765Z,99641.97
2022-12-31T00:36:39.548Z,99644.22
2022-12-31T00:39:10.540Z,99652.13
2022-12-31T00:41:43.396Z,99607.59
2022-12-31T00:44:14.688Z,99653.69
2022-12-31T00:49:11.849Z,99623.13
2022-12-31T00:51:40.390Z,99604.88
2022-12-31T00:54:09.817Z,99624.59
2022-12-31T00:56:38.243Z,99655.09
2022-12-31T00:59:06.835Z,99652.00
2022-12-31T01:01:38.767Z,99617.63
2022-12-31T01:04:17.355Z,99608.69
2022-12-31T01:06:46.238Z,99649.19
2022-12-31T01:09:16.822Z,99621.66
2022-12-31T01:11:45.271Z,99622.50
2022-12-31T01:14:19.491Z,99621.66
2022-12-31T01:16:56.681Z,99623.34
2022-12-31T01:19:29.538Z,99626.09
2022-12-31T01:21:58.251Z,99623.56
2022-12-31T01:24:26.962Z,99624.31
2022-12-31T01:26:57.906Z,99608.06
2022-12-31T01:29:27.742Z,99619.75
2022-12-31T01:31:56.243Z,99575.00
2022-12-31T01:34:24.377Z,99611.13
2022-12-31T01:36:53.144Z,99605.00
2022-12-31T01:39:21.414Z,99610.72
2022-12-31T01:41:49.674Z,99589.81
2022-12-31T01:44:26.933Z,99605.75
2022-12-31T01:47:01.049Z,99575.94
2022-12-31T01:49:47.864Z,99604.19
2022-12-31T01:52:29.110Z,99594.69
2022-12-31T01:55:05.853Z,99599.72
2022-12-31T01:57:35.189Z,99589.19
2022-12-31T02:00:05.567Z,99569.19
2022-12-31T02:02:34.365Z,99603.75
2022-12-31T02:05:12.811Z,99593.00
2022-12-31T02:07:41.274Z,99593.41
2022-12-31T02:10:10.250Z,99593.81
2022-12-31T02:12:38.285Z,99572.34
2022-12-31T02:15:07.294Z,99560.94
2022-12-31T02:18:11.669Z,99585.47
2022-12-31T02:21:14.948Z,99596.13
2022-12-31T02:24:13.661Z,99583.91
2022-12-31T02:27:21.398Z,99580.19
2022-12-31T02:30:08.855Z,99589.38
2022-12-31T02:33:05.389Z,99585.91
2022-12-31T02:35:56.300Z,99580.00
2022-12-31T02:38:47.502Z,99574.00
2022-12-31T02:41:37.679Z,99581.78
2022-12-31T02:44:33.308Z,99517.22
2022-12-31T02:47:13.186Z,99555.84
2022-12-31T02:49:53.496Z,99557.31
2022-12-31T02:52:41.353Z,99538.78
2022-12-31T02:55:34.837Z,99476.81
2022-12-31T02:58:55.930Z,99545.00
2022-12-31T03:01:58.557Z,99479.50
2022-12-31T03:04:34.172Z,99473.31
2022-12-31T03:07:12.951Z,99513.59
2022-12-31T03:09:41.088Z,99507.72
2022-12-31T03:12:31.445Z,99522.75
2022-12-31T03:15:00.049Z,99520.63
2022-12-31T03:17:28.570Z,99518.50
2022-12-31T03:20:15.053Z,99509.22
2022-12-31T03:22:43.481Z,99497.69
2022-12-31T03:25:35.471Z,99473.19
2022-12-31T03:28:09.912Z,99518.63
2022-12-31T03:30:42.452Z,99509.59
2022-12-31T03:33:11.551Z,99501.19
2022-12-31T03:35:42.027Z,99517.38
2022-12-31T03:38:10.495Z,99510.75
2022-12-31T03:40:45.667Z,99470.91
2022-12-31T03:43:14.512Z,99507.69
2022-12-31T03:45:43.730Z,99449.81
2022-12-31T03:48:11.780Z,99498.13
2022-12-31T03:50:39.672Z,99488.88
2022-12-31T03:53:07.708Z,99475.56
2022-12-31T03:55:35.903Z,99448.81
2022-12-31T03:58:05.139Z,99478.59
2022-12-31T04:00:33.656Z,99414.28
2022-12-31T04:03:01.562Z,99483.88
2022-12-31T04:05:29.540Z,99484.50
2022-12-31T04:07:57.718Z,99485.56
2022-12-31T04:10:25.935Z,99481.13
2022-12-31T04:12:53.993Z,99437.72
2022-12-31T04:15:22.931Z,99485.44
2022-12-31T04:17:51.157Z,99486.84
2022-12-31T04:20:20.847Z,99497.88
2022-12-31T04:22:50.660Z,99502.91
2022-12-31T04:25:18.813Z,99483.31
2022-12-31T04:27:47.987Z,99488.09
2022-12-31T04:30:16.380Z,99490.19
2022-12-31T04:32:44.291Z,99485.72
2022-12-31T04:35:13.376Z,99466.78
2022-12-31T04:37:41.473Z,99491.75
2022-12-31T04:40:10.731Z,99484.09
2022-12-31T04:42:39.084Z,99443.50
2022-12-31T04:45:08.574Z,99482.34
2022-12-31T04:47:36.960Z,99458.81
2022-12-31T04:50:05.945Z,99440.19
2022-12-31T04:52:40.328Z,99356.97
2022-12-31T04:55:11.257Z,99423.75
2022-12-31T04:57:39.603Z,99416.56
2022-12-31T05:00:08.789Z,99448.06
2022-12-31T05:02:37.093Z,99463.06
2022-12-31T05:05:05.935Z,99482.06
2022-12-31T05:07:34.181Z,99445.91
2022-12-31T05:10:02.278Z,99463.16
2022-12-31T05:12:30.922Z,99489.53
2022-12-31T05:14:58.940Z,99480.38
2022-12-31T05:17:27.362Z,99484.84
2022-12-31T05:19:55.412Z,99493.13
2022-12-31T05:22:29.325Z,99460.69
2022-12-31T05:24:58.785Z,99470.56
2022-12-31T05:27:28.411Z,99442.56
2022-12-31T05:29:56.522Z,99455.41
2022-12-31T05:32:24.827Z,99492.03
2022-12-31T05:34:53.734Z,99483.31
2022-12-31T05:37:22.475Z,99445.34
2022-12-31T05:39:50.413Z,99487.84
2022-12-31T05:42:18.692Z,99474.41
2022-12-31T05:44:47.121Z,99431.78
2022-12-31T05:47:15.659Z,99428.75
2022-12-31T05:49:44.769Z,99481.59
2022-12-31T05:52:12.688Z,99473.56
2022-12-31T05:54:40.622Z,99429.25
2022-12-31T05:57:09.048Z,99475.72
2022-12-31T05:59:37.521Z,99466.97
2022-12-31T06:02:06.376Z,99472.13
2022-12-31T06:04:35.025Z,99437.78
2022-12-31T06:07:02.879Z,99428.31
2022-12-31T06:09:31.092Z,99473.34
2022-12-31T06:11:58.924Z,99460.47
2022-12-31T06:14:26.840Z,99486.66
2022-12-31T06:16:54.951Z,99476.56
2022-12-31T06:19:23.092Z,99460.09
2022-12-31T06:21:50.977Z,99495.78
2022-12-31T06:24:19.349Z,99488.59
2022-12-31T06:26:47.432Z,99457.34
2022-12-31T06:29:15.565Z,99503.00
2022-12-31T06:31:43.845Z,99498.78
2022-12-31T06:34:12.692Z,99440.63
2022-12-31T06:36:41.441Z,99487.97
2022-12-31T06:39:13.310Z,99477.53
2022-12-31T06:41:41.586Z,99463.59
2022-12-31T06:44:10.115Z,99466.59
2022-12-31T06:46:38.219Z,99389.03
2022-12-31T06:49:09.613Z,99452.31
2022-12-31T06:51:37.807Z,99469.25
2022-12-31T06:54:06.443Z,99468.53
2022-12-31T06:56:35.754Z,99469.75
2022-12-31T06:59:05.177Z,99479.94
2022-12-31T07:02:03.117Z,99481.53
2022-12-31T07:04:52.152Z,99442.34
2022-12-31T07:07:34.146Z,99485.34
2022-12-31T07:10:29.014Z,99489.44
2022-12-31T07:13:28.343Z,99501.72
2022-12-31T07:16:23.775Z,99503.66
2022-12-31T07:19:10.372Z,99501.38
2022-12-31T07:21:41.670Z,99502.81
2022-12-31T07:24:12.051Z,99459.31
2022-12-31T07:27:07.881Z,99511.47
2022-12-31T07:30:26.485Z,99518.19
2022-12-31T07:33:38.292Z,99514.94
2022-12-31T07:36:52.640Z,99479.16
2022-12-31T07:39:51.603Z,99507.81
2022-12-31T07:42:57.380Z,99503.50
2022-12-31T07:45:43.038Z,99508.06
2022-12-31T07:48:29.482Z,99507.34
2022-12-31T07:50:58.707Z,99463.97
2022-12-31T07:53:28.035Z,99517.16
2022-12-31T07:56:04.845Z,99521.59
2022-12-31T07:59:03.532Z,99523.97
2022-12-31T08:01:50.793Z,99526.53
2022-12-31T08:04:45.419Z,99517.59
2022-12-31T08:07:41.705Z,99520.50
2022-12-31T08:10:39.366Z,99525.22
2022-12-31T08:13:15.032Z,99515.66
2022-12-31T08:15:43.413Z,99526.22
2022-12-31T08:18:11.710Z,99516.31
2022-12-31T08:21:23.078Z,99506.72
2022-12-31T08:24:15.655Z,99496.28
2022-12-31T08:27:08.022Z,99508.75
2022-12-31T08:29:54.647Z,99378.94
2022-12-31T08:32:51.426Z,99515.66
2022-12-31T08:36:04.338Z,99522.25
2022-12-31T08:39:16.501Z,99520.59
2022-12-31T08:41:46.210Z,99449.31
2022-12-31T08:45:06.098Z,99513.41
2022-12-31T08:47:59.829Z,99511.06
2022-12-31T08:50:29.467Z,99468.97
2022-12-31T08:52:59.086Z,99471.34
2022-12-31T08:55:28.123Z,99513.31
2022-12-31T08:58:05.205Z,99510.25
2022-12-31T09:00:35.946Z,99505.25
2022-12-31T09:03:28.544Z,99499.38
2022-12-31T09:06:23.518Z,99502.03
2022-12-31T09:09:38.430Z,99490.75
2022-12-31T09:13:00.808Z,99455.06
2022-12-31T09:15:43.421Z,99465.03
2022-12-31T09:18:13.951Z,99456.22
2022-12-31T09:20:44.097Z,99479.44
2022-12-31T09:23:14.286Z,99453.91
2022-12-31T09:26:24.153Z,99461.16
2022-12-31T09:29:04.296Z,99475.75
2022-12-31T09:31:45.222Z,99481.03
2022-12-31T09:34:54.718Z,99489.44
2022-12-31T09:37:48.988Z,99484.81
2022-12-31T09:40:28.896Z,99463.75
2022-12-31T09:43:20.833Z,99502.75
2022-12-31T09:46:27.755Z,99500.13
2022-12-31T09:48:58.697Z,99504.91
2022-12-31T09:51:46.761Z,99457.09
2022-12-31T09:54:47.184Z,99480.28
2022-12-31T09:58:04.741Z,99506.72
2022-12-31T10:00:55.643Z,99503.78
2022-12-31T10:04:12.935Z,99480.56
2022-12-31T10:07:21.554Z,99503.50
2022-12-31T10:10:03.731Z,99486.44
2022-12-31T10:13:14.606Z,99489.66
2022-12-31T10:16:12.033Z,99467.72
2022-12-31T10:19:16.772Z,99467.44
2022-12-31T10:22:00.359Z,99466.88
2022-12-31T10:24:40.884Z,99470.38
2022-12-31T10:27:25.162Z,99468.84
2022-12-31T10:29:59.191Z,99470.09
2022-12-31T10:33:15.009Z,99478.75
2022-12-31T10:36:03.640Z,99483.94
2022-12-31T10:39:12.849Z,99471.78
2022-12-31T10:42:32.310Z,99461.69
2022-12-31T10:45:40.919Z,99461.00
2022-12-31T10:48:29.713Z,99452.06
2022-12-31T10:51:19.328Z,99456.25
2022-12-31T10:54:18.212Z,99448.28
2022-12-31T10:57:18.040Z,99449.81
2022-12-31T11:00:21.424Z,99425.19
2022-12-31T11:03:43.398Z,99433.88
2022-12-31T11:06:58.175Z,99439.31
2022-12-31T11:09:55.689Z,99434.25
2022-12-31T11:13:04.206Z,99420.13
2022-12-31T11:16:35.275Z,99423.44
2022-12-31T11:19:30.973Z,99394.94
2022-12-31T11:22:11.705Z,99373.44
2022-12-31T11:25:22.671Z,99430.66
2022-12-31T11:27:59.294Z,99409.25
2022-12-31T11:30:49.295Z,99403.81
2022-12-31T11:33:32.597Z,99409.22
2022-12-31T11:36:11.163Z,99412.72
2022-12-31T11:38:53.293Z,99398.72
2022-12-31T11:41:49.795Z,99396.69
2022-12-31T11:44:55.670Z,99395.91
2022-12-31T11:48:20.220Z,99404.66
2022-12-31T11:51:16.394Z,99408.19
2022-12-31T11:54:01.568Z,99404.28
2022-12-31T11:56:40.847Z,99398.66
2022-12-31T11:59:18.842Z,99352.13
2022-12-31T12:02:24.414Z,99388.47
2022-12-31T12:04:55.571Z,99382.19
2022-12-31T12:07:24.849Z,99373.34
2022-12-31T12:09:56.616Z,99363.28
2022-12-31T12:12:26.444Z,99375.31
2022-12-31T12:14:55.505Z,99251.63
2022-12-31T12:17:33.666Z,99367.81
2022-12-31T12:20:16.165Z,99390.75
2022-12-31T12:22:57.488Z,99372.72
2022-12-31T12:25:39.426Z,99308.09
2022-12-31T12:28:29.867Z,99394.41
2022-12-31T12:31:05.506Z,99375.97
2022-12-31T12:33:47.284Z,99395.06
2022-12-31T12:36:19.825Z,99373.38
2022-12-31T12:38:49.392Z,99370.31
2022-12-31T12:41:27.255Z,99387.63
2022-12-31T12:44:16.890Z,99309.09
2022-12-31T12:46:49.902Z,99363.47
2022-12-31T12:49:40.028Z,99343.66
2022-12-31T12:52:40.930Z,99331.44
2022-12-31T12:55:28.109Z,99369.84
2022-12-31T12:58:36.852Z,99353.31
2022-12-31T13:01:31.058Z,99346.25
2022-12-31T13:04:39.494Z,99331.28
2022-12-31T13:07:44.101Z,99337.69
2022-12-31T13:11:03.939Z,99342.16
2022-12-31T13:13:52.701Z,99332.25
2022-12-31T13:16:48.589Z,99330.28
2022-12-31T13:19:36.813Z,99325.13
2022-12-31T13:22:40.961Z,99296.47
2022-12-31T13:25:18.183Z,99334.09
2022-12-31T13:27:52.775Z,99330.22
2022-12-31T13:30:38.433Z,99332.72
2022-12-31T13:33:20.715Z,99330.22
2022-12-31T13:36:00.862Z,99328.31
2022-12-31T13:38:29.425Z,99334.47
2022-12-31T13:41:37.118Z,99339.13
2022-12-31T13:44:30.247Z,99306.47
2022-12-31T13:47:13.676Z,99357.34
2022-12-31T13:50:02.855Z,99346.44
2022-12-31T13:52:54.528Z,99349.69
2022-12-31T13:55:30.393Z,99346.47
2022-12-31T13:58:13.364Z,99355.47
2022-12-31T14:00:56.516Z,99349.47
2022-12-31T14:04:03.937Z,99333.06
2022-12-31T14:06:35.317Z,99344.44
2022-12-31T14:09:05.672Z,99300.78
2022-12-31T14:12:20.692Z,99344.00
2022-12-31T14:15:25.586Z,99346.50
2022-12-31T14:18:42.721Z,99350.50
2022-12-31T14:21:54.524Z,99308.97
2022-12-31T14:24:44.134Z,99347.59
2022-12-31T14:27:20.754Z,99358.44
2022-12-31T14:29:57.961Z,99353.22
2022-12-31T14:32:50.201Z,99346.09
2022-12-31T14:35:47.148Z,99362.47
2022-12-31T14:38:33.539Z,99362.66
2022-12-31T14:41:56.343Z,99389.09
2022-12-31T14:45:16.202Z,99333.38
2022-12-31T14:48:07.160Z,99335.19
2022-12-31T14:50:36.646Z,99375.41
2022-12-31T14:53:06.532Z,99378.34
2022-12-31T14:55:38.141Z,99384.22
2022-12-31T14:58:38.341Z,99337.16
2022-12-31T15:01:15.468Z,99340.91
2022-12-31T15:03:46.287Z,99339.41
2022-12-31T15:06:41.500Z,99398.75
2022-12-31T15:09:46.742Z,99397.22
2022-12-31T15:12:46.272Z,99387.56
2022-12-31T15:15:26.616Z,99384.78
2022-12-31T15:18:10.288Z,99375.41
2022-12-31T15:21:04.801Z,99305.34
2022-12-31T15:23:38.448Z,99375.41
2022-12-31T15:26:17.465Z,99370.94
2022-12-31T15:28:56.698Z,99382.63
2022-12-31T15:31:25.769Z,99381.22
2022-12-31T15:34:03.894Z,99390.75
2022-12-31T15:36:38.941Z,99354.75
2022-12-31T15:39:12.177Z,99371.59
2022-12-31T15:42:27.301Z,99331.53
2022-12-31T15:45:11.612Z,99367.13
2022-12-31T15:47:46.942Z,99331.78
2022-12-31T15:50:21.803Z,99339.31
2022-12-31T15:52:56.930Z,99377.13
2022-12-31T15:55:37.814Z,99358.84
2022-12-31T15:58:12.778Z,99349.63
2022-12-31T16:01:06.982Z,99320.59
2022-12-31T16:03:37.244Z,99354.94
2022-12-31T16:06:14.227Z,99370.03
2022-12-31T16:08:49.515Z,99369.31
2022-12-31T16:11:19.562Z,99377.03
2022-12-31T16:13:54.320Z,99395.16
2022-12-31T16:16:26.994Z,99320.75
2022-12-31T16:18:57.719Z,99388.47
2022-12-31T16:21:36.717Z,99343.13
2022-12-31T16:24:28.564Z,99384.16
2022-12-31T16:27:03.059Z,99389.25
2022-12-31T16:29:34.527Z,99392.38
2022-12-31T16:32:04.021Z,99365.25
2022-12-31T16:34:37.825Z,99397.50
2022-12-31T16:37:17.261Z,99384.28
2022-12-31T16:39:57.571Z,99389.50
2022-12-31T16:42:30.773Z,99392.06
2022-12-31T16:45:16.514Z,99391.91
2022-12-31T16:47:45.276Z,99392.88
2022-12-31T16:50:23.164Z,99388.72
2022-12-31T16:53:03.543Z,99386.75
2022-12-31T16:55:33.565Z,99385.06
2022-12-31T16:58:12.381Z,99390.50
2022-12-31T17:00:41.101Z,99397.88
2022-12-31T17:03:16.362Z,99392.72
2022-12-31T17:06:18.365Z,99398.72
2022-12-31T17:08:55.604Z,99402.81
2022-12-31T17:11:42.403Z,99356.88
2022-12-31T17:14:16.275Z,99387.31
2022-12-31T17:17:03.101Z,99395.53
2022-12-31T17:19:43.142Z,99403.81
2022-12-31T17:22:34.244Z,99397.13
2022-12-31T17:25:25.638Z,99390.56
2022-12-31T17:28:22.023Z,99387.06
2022-12-31T17:30:50.976Z,99406.63
2022-12-31T17:33:21.758Z,99393.78
2022-12-31T17:36:24.367Z,99347.31
2022-12-31T17:38:52.667Z,99397.38
2022-12-31T17:41:29.764Z,99379.81
2022-12-31T17:43:58.291Z,99408.31
2022-12-31T17:46:26.593Z,99422.25
2022-12-31T17:49:01.424Z,99420.97
2022-12-31T17:51:29.461Z,99425.03
2022-12-31T17:54:00.904Z,99427.09
2022-12-31T17:56:29.044Z,99415.66
2022-12-31T17:58:56.892Z,99419.69
2022-12-31T18:01:26.605Z,99334.22
2022-12-31T18:03:56.937Z,99389.22
2022-12-31T18:06:26.755Z,99417.13
2022-12-31T18:08:54.919Z,99423.16
2022-12-31T18:11:27.915Z,99407.31
2022-12-31T18:13:56.987Z,99404.25
2022-12-31T18:16:24.924Z,99375.22
2022-12-31T18:18:53.136Z,99369.47
2022-12-31T18:21:34.600Z,99401.44
2022-12-31T18:24:06.443Z,99405.84
2022-12-31T18:26:34.874Z,99380.19
2022-12-31T18:29:16.351Z,99419.47
2022-12-31T18:31:49.335Z,99425.59
2022-12-31T18:34:18.603Z,99390.75
2022-12-31T18:36:47.170Z,99413.38
2022-12-31T18:39:15.553Z,99397.97
2022-12-31T18:41:49.572Z,99393.41
2022-12-31T18:44:18.876Z,99382.00
2022-12-31T18:46:47.192Z,99389.66
2022-12-31T18:49:15.108Z,99346.78
2022-12-31T18:51:43.252Z,99400.31
2022-12-31T18:54:12.662Z,99394.88
2022-12-31T18:56:47.072Z,99395.00
2022-12-31T18:59:17.113Z,99377.88
2022-12-31T19:01:45.947Z,99383.56
2022-12-31T19:04:26.574Z,99418.13
2022-12-31T19:06:56.597Z,99415.03
2022-12-31T19:09:44.739Z,99419.75
2022-12-31T19:12:17.446Z,99414.25
2022-12-31T19:14:45.907Z,99439.22
2022-12-31T19:17:14.483Z,99419.66
2022-12-31T19:19:42.793Z,99437.03
2022-12-31T19:22:15.782Z,99430.31
2022-12-31T19:24:44.002Z,99402.44
2022-12-31T19:27:12.380Z,99417.13
2022-12-31T19:29:40.544Z,99392.44
2022-12-31T19:32:08.818Z,99424.88
2022-12-31T19:34:37.220Z,99430.88
2022-12-31T19:37:05.256Z,99419.31
2022-12-31T19:39:33.479Z,99397.25
2022-12-31T19:42:01.978Z,99427.00
2022-12-31T19:44:30.016Z,99440.28
2022-12-31T19:46:57.994Z,99397.84
2022-12-31T19:49:28.644Z,99416.03
2022-12-31T19:51:56.844Z,99451.94
2022-12-31T19:54:25.547Z,99413.50
2022-12-31T19:56:53.627Z,99408.50
2022-12-31T19:59:21.551Z,99448.72
2022-12-31T20:01:49.588Z,99458.81
2022-12-31T20:04:18.273Z,99442.66
2022-12-31T20:06:46.286Z,99453.81
2022-12-31T20:09:15.748Z,99444.44
2022-12-31T20:11:43.846Z,99455.75
2022-12-31T20:14:12.211Z,99416.09
2022-12-31T20:16:40.319Z,99450.16
2022-12-31T20:19:12.756Z,99456.81
2022-12-31T20:21:42.058Z,99459.91
2022-12-31T20:24:11.411Z,99461.19
2022-12-31T20:26:39.586Z,99463.28
2022-12-31T20:29:08.051Z,99452.63
2022-12-31T20:31:36.574Z,99467.91
2022-12-31T20:34:04.458Z,99458.19
2022-12-31T20:36:32.580Z,99469.31
2022-12-31T20:39:00.769Z,99470.16
2022-12-31T20:41:28.702Z,99478.28
2022-12-31T20:43:56.947Z,99479.97
2022-12-31T20:46:28.806Z,99470.88
2022-12-31T20:49:00.454Z,99483.06
2022-12-31T20:51:31.105Z,99493.28
2022-12-31T20:54:07.540Z,99482.81
2022-12-31T20:56:39.834Z,99454.88
2022-12-31T20:59:12.439Z,99493.59
2022-12-31T21:02:19.203Z,99490.13
2022-12-31T21:04:29.033Z,99421.97
2022-12-31T21:06:58.122Z,99489.53
2022-12-31T21:09:28.886Z,99484.75
2022-12-31T21:12:15.531Z,99464.44
2022-12-31T21:14:44.981Z,99477.44
2022-12-31T21:17:13.012Z,99474.94
2022-12-31T21:19:40.834Z,99466.25
2022-12-31T21:22:08.899Z,99356.91
2022-12-31T21:24:36.993Z,99427.75
2022-12-31T21:27:05.327Z,99488.03
2022-12-31T21:29:41.846Z,99464.69
2022-12-31T21:32:18.425Z,99480.03
2022-12-31T21:35:06.526Z,99443.75
2022-12-31T21:37:58.865Z,99433.31
2022-12-31T21:40:23.918Z,99474.72
2022-12-31T21:42:52.359Z,99485.53
2022-12-31T21:45:20.558Z,99478.53
2022-12-31T21:48:07.263Z,99398.41
2022-12-31T21:50:35.906Z,99437.94
2022-12-31T21:53:05.327Z,99454.59
2022-12-31T21:55:52.712Z,99471.38
2022-12-31T21:58:28.621Z,99432.31
2022-12-31T22:01:17.541Z,99414.19
2022-12-31T22:03:46.455Z,99473.69
2022-12-31T22:06:24.842Z,99484.72
2022-12-31T22:08:56.165Z,99489.38
2022-12-31T22:11:27.689Z,99499.72
2022-12-31T22:13:56.573Z,99521.56
2022-12-31T22:16:25.524Z,99510.66
2022-12-31T22:18:55.963Z,99503.38
2022-12-31T22:21:25.790Z,99503.94
2022-12-31T22:23:56.582Z,99491.69
2022-12-31T22:26:28.735Z,99470.69
2022-12-31T22:29:00.191Z,99517.63
2022-12-31T22:31:32.767Z,99519.03
2022-12-31T22:34:02.243Z,99494.00
2022-12-31T22:36:30.795Z,99498.03
2022-12-31T22:38:59.046Z,99499.72
2022-12-31T22:41:28.787Z,99499.81
2022-12-31T22:44:03.823Z,99485.66
2022-12-31T22:46:34.838Z,99484.13
2022-12-31T22:49:04.509Z,99460.63
2022-12-31T22:51:56.707Z,99487.59
2022-12-31T22:54:21.091Z,99486.75
2022-12-31T22:56:49.011Z,99483.09
2022-12-31T22:59:17.952Z,99484.03
2022-12-31T23:01:46.362Z,99493.56
2022-12-31T23:04:14.503Z,99497.91
2022-12-31T23:06:45.135Z,99498.78
2022-12-31T23:09:34.666Z,99454.75
2022-12-31T23:12:07.386Z,99446.38
2022-12-31T23:14:54.753Z,99454.75
2022-12-31T23:17:44.671Z,99489.22
2022-12-31T23:20:37.215Z,99439.78
2022-12-31T23:23:07.837Z,99483.88
2022-12-31T23:25:50.158Z,99487.84
2022-12-31T23:28:22.199Z,99478.28
2022-12-31T23:30:51.678Z,99492.41
2022-12-31T23:33:23.700Z,99503.91
2022-12-31T23:36:02.783Z,99497.81
2022-12-31T23:38:31.017Z,99461.47
2022-12-31T23:40:58.977Z,99490.84
2022-12-31T23:43:26.968Z,99449.13
2022-12-31T23:45:55.132Z,99489.22
2022-12-31T23:48:23.261Z,99480.84
2022-12-31T23:50:53.922Z,99473.38
2022-12-31T23:53:25.806Z,99485.75
2022-12-31T23:55:54.252Z,99502.38
2022-12-31T23:58:23.073Z,99492.88
